Terminal Aerodrome Forecast
Issued by NWS Portland, OR

Home | Current Version | Previous Version | Text Only | Print | Product List | Glossary On
Versions: 1 2 3 4 5 6 7 8 9 10 11 12 13 14 15 16 17 18 19 20 21
000
FTUS46 KPQR 211136
TAFEUG
TAF
KEUG 211136Z 2112/2212 18005KT P6SM -RA SCT007 BKN025 OVC040
      TEMPO 2114/2118 SCT025 OVC040
     FM211800 18010KT P6SM -RA SCT025 BKN040 OVC060
     FM212200 18009KT P6SM -SHRA SCT035 BKN060 OVC100
     FM220900 16005KT P6SM -RA SCT035 OVC050=

USA.gov is the U.S. government's official web portal to all federal, state and local government web resources and services.